Time,TemperatureF,DewpointF,PressureIn,WindDirection,WindDirectionDegrees,WindSpeedMPH,WindSpeedGustMPH,Humidity,HourlyPrecipIn,Conditions,Clouds,dailyrainin,SoftwareType,DateUTC
2013-02-17 00:00:00,24.4,7.1,29.84,North,5,5.0,7.3,47,0.00,,BKN050,0.00,VWS V13.01,2013-02-17 05:00:00,
2013-02-17 00:05:00,24.8,7.4,29.84,North,357,5.0,5.0,47,0.00,,BKN050,0.00,VWS V13.01,2013-02-17 05:05:00,
2013-02-17 00:10:00,25.2,7.8,29.84,North,357,7.3,7.8,47,0.00,,BKN050,0.00,VWS V13.01,2013-02-17 05:10:00,
2013-02-17 00:15:00,25.3,7.9,29.84,North,357,5.0,5.0,47,0.00,,BKN050,0.00,VWS V13.01,2013-02-17 05:15:00,
2013-02-17 00:20:00,25.5,8.1,29.84,North,357,0.0,5.0,47,0.00,,BKN050,0.00,VWS V13.01,2013-02-17 05:20:00,
2013-02-17 00:25:00,25.3,7.9,29.84,North,0,0.0,2.8,47,0.00,,OVC050,0.00,VWS V13.01,2013-02-17 05:25:00,
2013-02-17 00:30:00,25.0,7.6,29.84,NNE,19,0.0,0.0,47,0.00,,OVC050,0.00,VWS V13.01,2013-02-17 05:30:00,
2013-02-17 00:35:00,24.4,7.1,29.84,North,0,3.9,4.5,47,0.00,,OVC050,0.00,VWS V13.01,2013-02-17 05:35:00,
2013-02-17 00:40:00,24.1,6.8,29.84,North,3,0.0,0.0,47,0.00,,OVC050,0.00,VWS V13.01,2013-02-17 05:40:00,
2013-02-17 00:45:00,23.7,6.4,29.84,NNE,29,0.0,3.9,47,0.00,,OVC050,0.00,VWS V13.01,2013-02-17 05:45:00,
2013-02-17 00:50:00,23.5,6.3,29.84,North,357,2.8,3.4,47,0.00,,OVC050,0.00,VWS V13.01,2013-02-17 05:50:00,
2013-02-17 00:55:00,23.2,5.9,29.84,North,0,2.8,5.0,47,0.00,,OVC050,0.00,VWS V13.01,2013-02-17 05:55:00,
2013-02-17 01:00:00,23.0,6.2,29.84,North,9,2.8,3.9,48,0.00,,OVC050,0.00,VWS V13.01,2013-02-17 06:00:00,
2013-02-17 01:05:00,22.8,6.1,29.84,North,1,2.8,3.9,48,0.00,,SCT050,0.00,VWS V13.01,2013-02-17 06:05:00,
2013-02-17 01:10:00,22.8,6.1,29.84,North,10,3.4,3.4,48,0.00,,SCT050,0.00,VWS V13.01,2013-02-17 06:10:00,
2013-02-17 01:15:00,22.8,6.1,29.84,North,357,3.4,5.0,48,0.00,,SCT050,0.00,VWS V13.01,2013-02-17 06:15:00,
2013-02-17 01:20:00,22.6,5.9,29.84,North,3,4.5,5.0,48,0.00,,SCT050,0.00,VWS V13.01,2013-02-17 06:20:00,
2013-02-17 01:25:00,22.8,6.1,29.84,North,0,5.0,6.7,48,0.00,,SCT050,0.00,VWS V13.01,2013-02-17 06:25:00,
2013-02-17 01:30:00,22.8,6.1,29.84,North,2,5.0,5.0,48,0.00,,SCT050,0.00,VWS V13.01,2013-02-17 06:30:00,
2013-02-17 01:35:00,23.0,6.2,29.84,NNE,15,3.9,5.0,48,0.00,,SCT050,0.00,VWS V13.01,2013-02-17 06:35:00,
2013-02-17 01:40:00,23.2,5.9,29.84,West,273,3.4,3.4,47,0.00,,OVC050,0.00,VWS V13.01,2013-02-17 06:40:00,
2013-02-17 01:45:00,23.4,6.1,29.84,West,278,3.9,3.9,47,0.00,,OVC050,0.00,VWS V13.01,2013-02-17 06:45:00,
2013-02-17 01:50:00,23.2,5.9,29.84,WSW,252,4.5,5.0,47,0.00,,OVC050,0.00,VWS V13.01,2013-02-17 06:50:00,
2013-02-17 01:55:00,23.0,6.2,29.84,WNW,284,3.4,3.9,48,0.00,,OVC050,0.00,VWS V13.01,2013-02-17 06:55:00,
2013-02-17 02:00:00,23.0,6.2,29.84,WNW,286,2.8,5.0,48,0.00,,OVC050,0.00,VWS V13.01,2013-02-17 07:00:00,
2013-02-17 02:05:00,23.0,6.2,29.84,West,272,3.4,3.9,48,0.00,,OVC050,0.00,VWS V13.01,2013-02-17 07:05:00,
2013-02-17 02:10:00,23.0,6.2,29.84,West,280,3.4,3.4,48,0.00,,OVC050,0.00,VWS V13.01,2013-02-17 07:10:00,
2013-02-17 02:15:00,23.0,6.2,29.84,West,281,5.0,5.0,48,0.00,,OVC050,0.00,VWS V13.01,2013-02-17 07:15:00,
2013-02-17 02:20:00,23.0,6.2,29.84,West,269,2.8,4.5,48,0.00,,OVC055,0.00,VWS V13.01,2013-02-17 07:20:00,
2013-02-17 02:25:00,23.2,5.9,29.84,West,279,3.9,4.5,47,0.00,,OVC055,0.00,VWS V13.01,2013-02-17 07:25:00,
2013-02-17 02:30:00,23.4,7.5,29.84,WNW,300,0.0,0.0,50,0.00,,OVC055,0.00,VWS V13.01,2013-02-17 07:30:00,
2013-02-17 02:35:00,23.5,7.7,29.84,North,1,2.8,3.9,50,0.00,,OVC055,0.00,VWS V13.01,2013-02-17 07:35:00,
2013-02-17 02:40:00,23.5,7.7,29.84,North,357,4.5,5.0,50,0.00,,BKN075,0.00,VWS V13.01,2013-02-17 07:40:00,
2013-02-17 02:45:00,23.4,7.5,29.84,North,10,3.9,4.5,50,0.00,,BKN075,0.00,VWS V13.01,2013-02-17 07:45:00,
2013-02-17 02:50:00,23.5,7.7,29.84,NNE,23,2.8,3.4,50,0.00,,BKN075,0.00,VWS V13.01,2013-02-17 07:50:00,
2013-02-17 02:55:00,23.4,7.5,29.84,West,266,3.9,7.3,50,0.00,,BKN075,0.00,VWS V13.01,2013-02-17 07:55:00,
2013-02-17 03:00:00,23.2,7.3,29.84,North,6,3.9,5.0,50,0.00,,BKN075,0.00,VWS V13.01,2013-02-17 08:00:00,
2013-02-17 03:05:00,23.2,7.3,29.84,North,353,3.9,4.5,50,0.00,,SCT080,0.00,VWS V13.01,2013-02-17 08:05:00,
2013-02-17 03:10:00,23.2,5.9,29.84,North,353,7.8,7.8,47,0.00,,SCT080,0.00,VWS V13.01,2013-02-17 08:10:00,
2013-02-17 03:15:00,23.4,6.1,29.84,NNW,332,10.1,12.0,47,0.00,,SCT080,0.00,VWS V13.01,2013-02-17 08:15:00,
2013-02-17 03:20:00,23.4,6.1,29.84,WSW,245,13.1,15.9,47,0.00,,CLR,0.00,VWS V13.01,2013-02-17 08:20:00,
2013-02-17 03:25:00,23.5,6.3,29.84,WSW,250,10.1,14.8,47,0.00,,CLR,0.00,VWS V13.01,2013-02-17 08:25:00,
2013-02-17 03:30:00,23.4,6.1,29.84,West,264,10.3,13.1,47,0.00,,CLR,0.00,VWS V13.01,2013-02-17 08:30:00,
2013-02-17 03:35:00,23.2,5.9,29.84,West,273,7.8,7.8,47,0.00,,CLR,0.00,VWS V13.01,2013-02-17 08:35:00,
2013-02-17 03:41:00,23.0,6.2,29.84,West,265,6.7,9.5,48,0.00,,SCT045,0.00,VWS V13.01,2013-02-17 08:41:00,
2013-02-17 03:46:00,22.8,6.1,29.84,West,261,7.3,7.8,48,0.00,,SCT045,0.00,VWS V13.01,2013-02-17 08:46:00,
2013-02-17 03:51:00,22.6,5.9,29.84,West,275,6.7,7.8,48,0.00,,SCT045,0.00,VWS V13.01,2013-02-17 08:51:00,
2013-02-17 03:56:00,22.3,5.6,29.84,West,262,6.7,10.1,48,0.00,,SCT045,0.00,VWS V13.01,2013-02-17 08:56:00,
2013-02-17 04:01:00,21.9,5.2,29.84,West,278,6.7,12.6,48,0.00,,SCT045,0.00,VWS V13.01,2013-02-17 09:01:00,
2013-02-17 04:06:00,21.9,5.2,29.84,West,265,10.9,10.9,48,0.00,,CLR,0.00,VWS V13.01,2013-02-17 09:06:00,
2013-02-17 04:11:00,21.7,5.1,29.84,West,281,7.8,12.0,48,0.00,,CLR,0.00,VWS V13.01,2013-02-17 09:11:00,
2013-02-17 04:16:00,21.7,5.1,29.84,West,266,10.3,10.3,48,0.00,,CLR,0.00,VWS V13.01,2013-02-17 09:16:00,
2013-02-17 04:21:00,21.6,4.9,29.84,West,262,12.6,12.6,48,0.00,,CLR,0.00,VWS V13.01,2013-02-17 09:21:00,
2013-02-17 04:26:00,21.6,4.9,29.87,West,273,10.3,10.3,48,0.00,,CLR,0.00,VWS V13.01,2013-02-17 09:26:00,
2013-02-17 04:31:00,21.4,4.8,29.87,West,264,7.8,7.8,48,0.00,,CLR,0.00,VWS V13.01,2013-02-17 09:31:00,
2013-02-17 04:36:00,21.2,4.6,29.87,West,279,7.3,10.3,48,0.00,,CLR,0.00,VWS V13.01,2013-02-17 09:36:00,
2013-02-17 04:41:00,21.2,4.6,29.87,West,276,10.9,13.1,48,0.00,,CLR,0.00,VWS V13.01,2013-02-17 09:41:00,
2013-02-17 04:46:00,21.2,4.6,29.87,West,265,10.9,14.3,48,0.00,,CLR,0.00,VWS V13.01,2013-02-17 09:46:00,
2013-02-17 04:51:00,21.0,4.4,29.87,West,263,10.1,15.9,48,0.00,,CLR,0.00,VWS V13.01,2013-02-17 09:51:00,
2013-02-17 04:56:00,21.0,4.4,29.87,West,281,9.5,12.0,48,0.00,,CLR,0.00,VWS V13.01,2013-02-17 09:56:00,
2013-02-17 05:01:00,21.0,4.4,29.87,NW,309,12.6,15.4,48,0.00,,CLR,0.00,VWS V13.01,2013-02-17 10:01:00,
2013-02-17 05:06:00,20.8,4.2,29.87,WSW,249,15.9,15.9,48,0.00,,CLR,0.00,VWS V13.01,2013-02-17 10:06:00,
2013-02-17 05:11:00,20.8,4.2,29.87,West,263,7.8,13.1,48,0.00,,CLR,0.00,VWS V13.01,2013-02-17 10:11:00,
2013-02-17 05:16:00,20.7,4.1,29.87,WNW,282,10.3,11.5,48,0.00,,CLR,0.00,VWS V13.01,2013-02-17 10:16:00,
2013-02-17 05:21:00,20.7,4.1,29.87,WSW,253,10.3,13.1,48,0.00,,CLR,0.00,VWS V13.01,2013-02-17 10:21:00,
2013-02-17 05:26:00,20.5,3.9,29.87,West,261,10.9,15.4,48,0.00,,CLR,0.00,VWS V13.01,2013-02-17 10:26:00,
2013-02-17 05:31:00,20.3,3.8,29.87,WSW,257,10.9,10.9,48,0.00,,CLR,0.00,VWS V13.01,2013-02-17 10:31:00,
2013-02-17 05:36:00,20.3,3.8,29.87,West,280,10.3,11.5,48,0.00,,CLR,0.00,VWS V13.01,2013-02-17 10:36:00,
2013-02-17 05:41:00,20.3,3.8,29.87,West,277,7.8,9.5,48,0.00,,CLR,0.00,VWS V13.01,2013-02-17 10:41:00,
2013-02-17 05:46:00,20.1,3.6,29.87,West,274,10.1,10.1,48,0.00,,CLR,0.00,VWS V13.01,2013-02-17 10:46:00,
2013-02-17 05:51:00,20.1,3.6,29.87,West,267,7.8,10.3,48,0.00,,CLR,0.00,VWS V13.01,2013-02-17 10:51:00,
2013-02-17 05:56:00,19.9,3.4,29.87,WNW,284,7.8,7.8,48,0.00,,CLR,0.00,VWS V13.01,2013-02-17 10:56:00,
2013-02-17 06:01:00,19.9,3.4,29.87,West,280,10.1,14.8,48,0.00,,CLR,0.00,VWS V13.01,2013-02-17 11:01:00,
2013-02-17 06:06:00,19.9,3.4,29.87,WSW,253,12.6,15.4,48,0.00,,CLR,0.00,VWS V13.01,2013-02-17 11:06:00,
2013-02-17 06:11:00,19.9,3.4,29.87,West,260,7.3,10.9,48,0.00,,CLR,0.00,VWS V13.01,2013-02-17 11:11:00,
2013-02-17 06:16:00,19.8,3.3,29.87,WSW,252,7.8,9.5,48,0.00,,CLR,0.00,VWS V13.01,2013-02-17 11:16:00,
2013-02-17 06:21:00,19.6,3.1,29.87,WSW,254,6.7,7.8,48,0.00,,CLR,0.00,VWS V13.01,2013-02-17 11:21:00,
2013-02-17 06:26:00,19.4,2.9,29.90,West,271,7.3,7.8,48,0.00,,CLR,0.00,VWS V13.01,2013-02-17 11:26:00,
2013-02-17 06:31:00,19.2,2.8,29.90,WSW,237,6.7,10.1,48,0.00,,CLR,0.00,VWS V13.01,2013-02-17 11:31:00,
2013-02-17 06:36:00,19.2,2.8,29.90,West,278,6.7,8.4,48,0.00,,CLR,0.00,VWS V13.01,2013-02-17 11:36:00,
2013-02-17 06:41:00,19.0,2.6,29.90,WNW,287,6.7,7.8,48,0.00,,CLR,0.00,VWS V13.01,2013-02-17 11:41:00,
2013-02-17 06:46:00,19.0,2.6,29.90,WNW,292,5.0,8.4,48,0.00,,CLR,0.00,VWS V13.01,2013-02-17 11:46:00,
2013-02-17 06:51:00,19.2,2.8,29.90,WSW,239,10.9,10.9,48,0.00,,CLR,0.00,VWS V13.01,2013-02-17 11:51:00,
2013-02-17 06:56:00,19.2,2.8,29.90,WSW,245,8.9,10.3,48,0.00,,CLR,0.00,VWS V13.01,2013-02-17 11:56:00,
2013-02-17 07:01:00,19.4,2.9,29.90,West,279,7.3,10.3,48,0.00,,CLR,0.00,VWS V13.01,2013-02-17 12:01:00,
2013-02-17 07:06:00,19.4,2.9,29.90,West,269,6.7,6.7,48,0.00,,CLR,0.00,VWS V13.01,2013-02-17 12:06:00,
2013-02-17 07:11:00,19.2,2.8,29.90,West,263,3.9,5.0,48,0.00,,CLR,0.00,VWS V13.01,2013-02-17 12:11:00,
2013-02-17 07:16:00,19.2,2.8,29.90,West,268,6.7,7.8,48,0.00,,CLR,0.00,VWS V13.01,2013-02-17 12:16:00,
2013-02-17 07:21:00,19.2,2.8,29.90,WNW,283,5.0,5.0,48,0.00,,CLR,0.00,VWS V13.01,2013-02-17 12:21:00,
2013-02-17 07:26:00,19.2,2.8,29.90,WNW,283,4.5,5.0,48,0.00,,CLR,0.00,VWS V13.01,2013-02-17 12:26:00,
2013-02-17 07:31:00,19.2,2.8,29.90,WNW,290,4.5,6.7,48,0.00,,CLR,0.00,VWS V13.01,2013-02-17 12:31:00,
2013-02-17 07:36:00,19.2,2.8,29.90,WSW,256,7.3,7.8,48,0.00,,CLR,0.00,VWS V13.01,2013-02-17 12:36:00,
2013-02-17 07:41:00,19.4,2.9,29.93,WSW,258,9.5,9.5,48,0.00,,SCT070,0.00,VWS V13.01,2013-02-17 12:41:00,
2013-02-17 07:46:00,19.9,3.4,29.93,WNW,301,6.7,7.3,48,0.00,,SCT070,0.00,VWS V13.01,2013-02-17 12:46:00,
2013-02-17 07:51:00,20.3,3.8,29.93,West,272,6.7,10.9,48,0.00,,SCT070,0.00,VWS V13.01,2013-02-17 12:51:00,
2013-02-17 07:56:00,20.3,3.8,29.93,WSW,253,7.3,10.9,48,0.00,,SCT070,0.00,VWS V13.01,2013-02-17 12:56:00,
2013-02-17 08:01:00,20.3,3.8,29.93,WSW,246,7.8,7.8,48,0.00,,SCT070,0.00,VWS V13.01,2013-02-17 13:01:00,
2013-02-17 08:06:00,20.3,3.8,29.93,WNW,291,10.3,10.9,48,0.00,,SCT070,0.00,VWS V13.01,2013-02-17 13:06:00,
2013-02-17 08:11:00,20.3,3.8,29.93,WNW,283,10.3,10.9,48,0.00,,SCT070,0.00,VWS V13.01,2013-02-17 13:11:00,
2013-02-17 08:16:00,20.3,3.8,29.93,NNW,328,12.6,13.1,48,0.00,,SCT070,0.00,VWS V13.01,2013-02-17 13:16:00,
2013-02-17 08:21:00,20.8,4.2,29.93,West,261,10.9,14.3,48,0.00,,SCT050,0.00,VWS V13.01,2013-02-17 13:21:00,
2013-02-17 08:26:00,21.6,4.9,29.96,WSW,258,15.9,15.9,48,0.00,,SCT050,0.00,VWS V13.01,2013-02-17 13:26:00,
2013-02-17 08:31:00,22.1,5.4,29.96,WSW,255,9.5,15.4,48,0.00,,SCT050,0.00,VWS V13.01,2013-02-17 13:31:00,
2013-02-17 08:36:00,22.3,5.6,29.96,West,265,12.6,16.5,48,0.00,,SCT048,0.00,VWS V13.01,2013-02-17 13:36:00,
2013-02-17 08:41:00,22.5,5.8,29.96,West,266,10.3,13.7,48,0.00,,SCT048,0.00,VWS V13.01,2013-02-17 13:41:00,
2013-02-17 08:46:00,22.6,5.9,29.96,West,268,15.4,15.4,48,0.00,,SCT048,0.00,VWS V13.01,2013-02-17 13:46:00,
2013-02-17 08:51:00,22.8,4.7,29.96,NNE,25,7.8,15.9,45,0.00,,SCT048,0.00,VWS V13.01,2013-02-17 13:51:00,
2013-02-17 08:56:00,22.8,6.1,29.96,North,7,7.3,10.9,48,0.00,,SCT048,0.00,VWS V13.01,2013-02-17 13:56:00,
2013-02-17 09:01:00,23.0,6.2,29.96,WSW,258,3.9,9.5,48,0.00,,SCT048,0.00,VWS V13.01,2013-02-17 14:01:00,
2013-02-17 09:06:00,23.4,6.1,29.96,West,281,13.1,13.1,47,0.00,,SCT048,0.00,VWS V13.01,2013-02-17 14:06:00,
2013-02-17 09:11:00,23.5,6.3,29.96,WSW,251,4.5,13.1,47,0.00,,SCT048,0.00,VWS V13.01,2013-02-17 14:11:00,
2013-02-17 09:16:00,23.9,6.6,29.96,ENE,70,6.2,10.1,47,0.00,,SCT048,0.00,VWS V13.01,2013-02-17 14:16:00,
2013-02-17 09:21:00,24.3,6.9,29.96,West,277,13.7,13.7,47,0.00,,CLR,0.00,VWS V13.01,2013-02-17 14:21:00,
2013-02-17 09:26:00,24.4,7.1,29.96,West,265,10.1,12.6,47,0.00,,CLR,0.00,VWS V13.01,2013-02-17 14:26:00,
2013-02-17 09:31:00,24.4,6.2,29.96,WNW,283,9.5,16.5,45,0.00,,CLR,0.00,VWS V13.01,2013-02-17 14:31:00,
2013-02-17 09:36:00,24.6,6.3,29.96,West,271,16.5,16.5,45,0.00,,CLR,0.00,VWS V13.01,2013-02-17 14:36:00,
2013-02-17 09:41:00,24.8,6.5,29.96,West,264,13.1,15.9,45,0.00,,CLR,0.00,VWS V13.01,2013-02-17 14:41:00,
2013-02-17 09:46:00,24.6,6.3,29.96,NW,326,13.7,15.9,45,0.00,,CLR,0.00,VWS V13.01,2013-02-17 14:46:00,
2013-02-17 09:51:00,24.6,6.3,29.96,West,276,10.9,17.6,45,0.00,,CLR,0.00,VWS V13.01,2013-02-17 14:51:00,
2013-02-17 09:56:00,24.8,6.5,29.96,North,8,5.0,10.3,45,0.00,,CLR,0.00,VWS V13.01,2013-02-17 14:56:00,
2013-02-17 10:01:00,25.0,6.2,29.96,WSW,249,10.9,15.9,44,0.00,,CLR,0.00,VWS V13.01,2013-02-17 15:01:00,
2013-02-17 10:06:00,24.8,6.5,29.96,West,279,15.4,17.6,45,0.00,,CLR,0.00,VWS V13.01,2013-02-17 15:06:00,
2013-02-17 10:11:00,24.8,6.5,29.99,West,267,12.6,13.7,45,0.00,,CLR,0.00,VWS V13.01,2013-02-17 15:11:00,
2013-02-17 10:16:00,25.3,6.5,29.99,SW,225,13.1,15.9,44,0.00,,CLR,0.00,VWS V13.01,2013-02-17 15:16:00,
2013-02-17 10:21:00,25.7,6.8,29.99,WSW,254,10.1,13.7,44,0.00,,CLR,0.00,VWS V13.01,2013-02-17 15:21:00,
2013-02-17 10:26:00,25.5,6.7,29.99,West,261,17.6,17.6,44,0.00,,CLR,0.00,VWS V13.01,2013-02-17 15:26:00,
2013-02-17 10:31:00,25.5,6.7,29.99,West,273,12.6,12.6,44,0.00,,CLR,0.00,VWS V13.01,2013-02-17 15:31:00,
2013-02-17 10:36:00,26.1,7.2,29.99,WSW,248,12.0,13.7,44,0.00,,CLR,0.00,VWS V13.01,2013-02-17 15:36:00,
2013-02-17 10:41:00,26.1,7.2,29.99,WNW,286,12.6,13.7,44,0.00,,CLR,0.00,VWS V13.01,2013-02-17 15:41:00,
2013-02-17 10:46:00,25.7,6.8,29.99,West,271,13.7,18.2,44,0.00,,CLR,0.00,VWS V13.01,2013-02-17 15:46:00,
2013-02-17 10:51:00,25.5,6.7,29.99,West,270,9.5,17.6,44,0.00,,CLR,0.00,VWS V13.01,2013-02-17 15:51:00,
2013-02-17 10:56:00,25.7,6.8,29.99,NW,310,15.9,15.9,44,0.00,,CLR,0.00,VWS V13.01,2013-02-17 15:56:00,
2013-02-17 11:01:00,25.5,6.7,29.99,WNW,291,8.4,13.7,44,0.00,,CLR,0.00,VWS V13.01,2013-02-17 16:01:00,
2013-02-17 11:06:00,25.5,6.7,29.99,West,266,10.9,13.1,44,0.00,,SCT055,0.00,VWS V13.01,2013-02-17 16:06:00,
2013-02-17 11:11:00,26.1,7.2,29.99,NNW,332,9.5,13.1,44,0.00,,SCT055,0.00,VWS V13.01,2013-02-17 16:11:00,
2013-02-17 11:16:00,26.6,7.6,29.99,WNW,289,10.1,15.4,44,0.00,,SCT055,0.00,VWS V13.01,2013-02-17 16:16:00,
2013-02-17 11:21:00,27.0,8.0,29.99,WNW,284,10.9,10.9,44,0.00,,BKN055,0.00,VWS V13.01,2013-02-17 16:21:00,
2013-02-17 11:26:00,26.8,7.8,29.99,WNW,299,7.8,15.4,44,0.00,,BKN055,0.00,VWS V13.01,2013-02-17 16:26:00,
2013-02-17 11:31:00,26.4,7.5,29.99,West,281,10.1,10.9,44,0.00,,BKN055,0.00,VWS V13.01,2013-02-17 16:31:00,
2013-02-17 11:36:00,26.6,7.6,29.99,WSW,250,10.9,13.7,44,0.00,,BKN055,0.00,VWS V13.01,2013-02-17 16:36:00,
2013-02-17 11:41:00,26.2,7.3,29.99,NNW,344,15.4,18.7,44,0.00,,SCT055,0.00,VWS V13.01,2013-02-17 16:41:00,
2013-02-17 11:46:00,26.4,7.5,29.99,WSW,257,10.1,13.7,44,0.00,,SCT055,0.00,VWS V13.01,2013-02-17 16:46:00,
2013-02-17 11:51:00,27.0,8.0,29.99,North,357,12.0,16.5,44,0.00,,SCT055,0.00,VWS V13.01,2013-02-17 16:51:00,
2013-02-17 11:56:00,27.0,8.0,29.99,NE,48,13.7,13.7,44,0.00,,CLR,0.00,VWS V13.01,2013-02-17 16:56:00,
2013-02-17 12:01:00,26.6,7.6,29.99,WSW,240,4.5,7.8,44,0.00,,CLR,0.00,VWS V13.01,2013-02-17 17:01:00,
2013-02-17 12:06:00,27.3,8.3,30.02,NNW,345,9.5,16.5,44,0.00,,CLR,0.00,VWS V13.01,2013-02-17 17:06:00,
2013-02-17 12:11:00,27.3,8.3,30.02,North,353,10.9,19.3,44,0.00,,CLR,0.00,VWS V13.01,2013-02-17 17:11:00,
2013-02-17 12:16:00,26.2,7.3,30.02,NNE,30,7.8,12.6,44,0.00,,CLR,0.00,VWS V13.01,2013-02-17 17:16:00,
2013-02-17 12:21:00,25.0,6.2,30.02,West,263,6.2,18.7,44,0.00,,SCT055,0.00,VWS V13.01,2013-02-17 17:21:00,
2013-02-17 12:26:00,24.8,6.5,30.02,North,0,15.9,15.9,45,0.00,,SCT055,0.00,VWS V13.01,2013-02-17 17:26:00,
2013-02-17 12:31:00,25.2,6.3,30.02,NNW,344,13.1,13.7,44,0.00,,SCT055,0.00,VWS V13.01,2013-02-17 17:31:00,
2013-02-17 12:36:00,25.5,6.7,29.99,North,1,6.2,10.3,44,0.00,,SCT055,0.00,VWS V13.01,2013-02-17 17:36:00,
2013-02-17 12:41:00,25.5,6.7,29.99,NW,326,7.8,10.9,44,0.00,,SCT070,0.00,VWS V13.01,2013-02-17 17:41:00,
2013-02-17 12:46:00,25.7,6.8,29.99,WNW,291,10.1,14.8,44,0.00,,SCT070,0.00,VWS V13.01,2013-02-17 17:46:00,
2013-02-17 12:51:00,25.7,6.8,30.02,WSW,258,11.5,18.7,44,0.00,,SCT070,0.00,VWS V13.01,2013-02-17 17:51:00,
2013-02-17 12:56:00,25.5,6.7,30.02,WNW,294,6.7,10.1,44,0.00,,SCT070,0.00,VWS V13.01,2013-02-17 17:56:00,
2013-02-17 13:01:00,26.1,7.2,30.02,WSW,249,13.1,18.7,44,0.00,,SCT070,0.00,VWS V13.01,2013-02-17 18:01:00,
2013-02-17 13:06:00,26.1,7.2,30.02,West,272,10.9,16.5,44,0.00,,BKN070,0.00,VWS V13.01,2013-02-17 18:06:00,
2013-02-17 13:11:00,26.6,7.6,30.02,WNW,282,10.9,13.7,44,0.00,,BKN070,0.00,VWS V13.01,2013-02-17 18:11:00,
2013-02-17 13:16:00,26.2,7.3,30.02,NNE,21,7.3,12.6,44,0.00,,BKN070,0.00,VWS V13.01,2013-02-17 18:16:00,
2013-02-17 13:21:00,27.0,8.0,30.02,WSW,257,10.9,13.7,44,0.00,,OVC060,0.00,VWS V13.01,2013-02-17 18:21:00,
2013-02-17 13:26:00,27.9,8.8,30.02,West,263,12.6,12.6,44,0.00,,OVC060,0.00,VWS V13.01,2013-02-17 18:26:00,
2013-02-17 13:31:00,28.6,8.9,30.02,West,273,16.5,16.5,43,0.00,,OVC060,0.00,VWS V13.01,2013-02-17 18:31:00,
2013-02-17 13:36:00,28.9,9.3,29.99,WSW,249,10.1,13.1,43,0.00,,OVC060,0.00,VWS V13.01,2013-02-17 18:36:00,
2013-02-17 13:41:00,28.9,9.3,29.99,WSW,254,10.3,19.3,43,0.00,,OVC060,0.00,VWS V13.01,2013-02-17 18:41:00,
2013-02-17 13:46:00,28.8,9.1,29.99,WNW,291,13.7,15.9,43,0.00,,OVC060,0.00,VWS V13.01,2013-02-17 18:46:00,
2013-02-17 13:51:00,28.4,9.3,29.99,WNW,285,12.6,16.5,44,0.00,,OVC060,0.00,VWS V13.01,2013-02-17 18:51:00,
2013-02-17 13:56:00,27.0,8.0,29.99,West,264,10.9,13.7,44,0.00,,OVC060,0.00,VWS V13.01,2013-02-17 18:56:00,
2013-02-17 14:01:00,26.4,7.5,29.99,West,267,10.1,12.6,44,0.00,,OVC060,0.00,VWS V13.01,2013-02-17 19:01:00,
2013-02-17 14:06:00,27.1,8.1,29.99,West,277,10.9,10.9,44,0.00,,OVC060,0.00,VWS V13.01,2013-02-17 19:06:00,
2013-02-17 14:11:00,27.7,8.6,29.99,North,353,4.5,10.9,44,0.00,,OVC060,0.00,VWS V13.01,2013-02-17 19:11:00,
2013-02-17 14:16:00,28.0,8.9,29.99,West,262,13.7,16.5,44,0.00,,OVC060,0.00,VWS V13.01,2013-02-17 19:16:00,
2013-02-17 14:21:00,28.4,9.3,29.99,WNW,286,12.6,18.7,44,0.00,,SCT060,0.00,VWS V13.01,2013-02-17 19:21:00,
2013-02-17 14:26:00,28.4,9.3,29.99,WSW,243,15.4,15.4,44,0.00,,SCT060,0.00,VWS V13.01,2013-02-17 19:26:00,
2013-02-17 14:31:00,27.0,8.0,29.99,West,276,10.3,13.1,44,0.00,,SCT060,0.00,VWS V13.01,2013-02-17 19:31:00,
2013-02-17 14:36:00,25.5,6.7,30.02,WNW,285,12.6,15.4,44,0.00,,SCT060,0.00,VWS V13.01,2013-02-17 19:36:00,
2013-02-17 14:41:00,25.3,6.5,30.02,WNW,284,17.6,17.6,44,0.00,,SCT060,0.00,VWS V13.01,2013-02-17 19:41:00,
2013-02-17 14:46:00,25.9,7.0,30.02,SW,222,10.3,13.1,44,0.00,,SCT060,0.00,VWS V13.01,2013-02-17 19:46:00,
2013-02-17 14:51:00,26.6,7.6,30.02,WSW,257,13.1,18.7,44,0.00,,SCT060,0.00,VWS V13.01,2013-02-17 19:51:00,
2013-02-17 14:56:00,27.0,8.0,30.02,NW,314,13.1,18.7,44,0.00,,SCT060,0.00,VWS V13.01,2013-02-17 19:56:00,
2013-02-17 15:01:00,27.0,8.0,30.02,West,272,10.1,12.6,44,0.00,,SCT060,0.00,VWS V13.01,2013-02-17 20:01:00,
2013-02-17 15:06:00,27.1,8.1,30.02,West,278,10.3,10.9,44,0.00,,SCT060,0.00,VWS V13.01,2013-02-17 20:06:00,
2013-02-17 15:11:00,26.8,7.8,30.02,NNW,330,10.1,12.6,44,0.00,,SCT060,0.00,VWS V13.01,2013-02-17 20:11:00,
2013-02-17 15:16:00,26.1,7.2,30.02,West,265,12.0,12.0,44,0.00,,SCT060,0.00,VWS V13.01,2013-02-17 20:16:00,
2013-02-17 15:21:00,25.2,6.3,30.02,WNW,297,12.6,13.1,44,0.00,,SCT060,0.00,VWS V13.01,2013-02-17 20:21:00,
2013-02-17 15:26:00,24.8,6.5,30.02,West,264,7.8,14.3,45,0.00,,SCT060,0.00,VWS V13.01,2013-02-17 20:26:00,
2013-02-17 15:31:00,24.8,6.5,30.02,West,263,17.6,17.6,45,0.00,,SCT060,0.00,VWS V13.01,2013-02-17 20:31:00,
2013-02-17 15:36:00,24.8,6.5,30.02,North,353,12.6,13.7,45,0.00,,SCT060,0.00,VWS V13.01,2013-02-17 20:36:00,
2013-02-17 15:41:00,25.5,6.7,30.02,West,259,13.7,18.7,44,0.00,,SCT060,0.00,VWS V13.01,2013-02-17 20:41:00,
2013-02-17 15:46:00,26.6,7.6,30.02,WSW,237,9.5,10.1,44,0.00,,SCT060,0.00,VWS V13.01,2013-02-17 20:46:00,
2013-02-17 15:51:00,27.0,8.0,30.02,WNW,301,7.3,15.9,44,0.00,,SCT060,0.00,VWS V13.01,2013-02-17 20:51:00,
2013-02-17 15:56:00,27.5,8.5,30.02,WSW,237,12.6,13.7,44,0.00,,SCT060,0.00,VWS V13.01,2013-02-17 20:56:00,
2013-02-17 16:01:00,27.5,8.5,30.02,WSW,255,17.1,17.1,44,0.00,,SCT060,0.00,VWS V13.01,2013-02-17 21:01:00,
2013-02-17 16:06:00,27.5,8.5,30.02,WSW,258,16.5,18.7,44,0.00,,SCT060,0.00,VWS V13.01,2013-02-17 21:06:00,
2013-02-17 16:11:00,27.5,8.5,30.02,WSW,253,10.1,10.1,44,0.00,,SCT060,0.00,VWS V13.01,2013-02-17 21:11:00,
2013-02-17 16:16:00,27.0,8.0,30.02,WNW,290,12.0,13.7,44,0.00,,SCT060,0.00,VWS V13.01,2013-02-17 21:16:00,
2013-02-17 16:21:00,26.8,7.8,30.02,WSW,256,13.1,15.9,44,0.00,,SCT060,0.00,VWS V13.01,2013-02-17 21:21:00,
2013-02-17 16:26:00,26.6,7.6,30.02,WNW,298,16.5,16.5,44,0.00,,SCT060,0.00,VWS V13.01,2013-02-17 21:26:00,
2013-02-17 16:31:00,26.1,7.2,30.02,WNW,290,19.3,19.3,44,0.00,,SCT060,0.00,VWS V13.01,2013-02-17 21:31:00,
2013-02-17 16:36:00,25.5,6.7,30.02,West,261,15.9,15.9,44,0.00,,SCT060,0.00,VWS V13.01,2013-02-17 21:36:00,
2013-02-17 16:41:00,25.2,6.3,30.02,WNW,284,13.7,13.7,44,0.00,,CLR,0.00,VWS V13.01,2013-02-17 21:41:00,
2013-02-17 16:46:00,24.8,6.5,30.02,North,10,13.1,18.2,45,0.00,,CLR,0.00,VWS V13.01,2013-02-17 21:46:00,
2013-02-17 16:51:00,24.4,6.2,30.05,WNW,284,12.6,15.9,45,0.00,,CLR,0.00,VWS V13.01,2013-02-17 21:51:00,
2013-02-17 16:56:00,24.4,6.2,30.05,West,272,15.4,15.4,45,0.00,,CLR,0.00,VWS V13.01,2013-02-17 21:56:00,
2013-02-17 17:02:00,24.3,6.0,30.05,West,261,13.7,13.7,45,0.00,,CLR,0.00,VWS V13.01,2013-02-17 22:02:00,
2013-02-17 17:07:00,24.1,5.8,30.05,West,276,10.3,17.1,45,0.00,,SCT060,0.00,VWS V13.01,2013-02-17 22:07:00,
2013-02-17 17:12:00,23.5,5.3,30.05,WSW,245,10.1,10.1,45,0.00,,SCT060,0.00,VWS V13.01,2013-02-17 22:12:00,
2013-02-17 17:17:00,23.2,5.0,30.05,WNW,292,15.9,15.9,45,0.00,,SCT060,0.00,VWS V13.01,2013-02-17 22:17:00,
2013-02-17 17:22:00,22.8,4.7,30.05,West,259,10.1,15.4,45,0.00,,CLR,0.00,VWS V13.01,2013-02-17 22:22:00,
2013-02-17 17:27:00,22.6,4.5,30.05,West,270,4.5,10.9,45,0.00,,CLR,0.00,VWS V13.01,2013-02-17 22:27:00,
2013-02-17 17:32:00,22.5,4.3,30.05,West,270,16.5,16.5,45,0.00,,CLR,0.00,VWS V13.01,2013-02-17 22:32:00,
2013-02-17 17:37:00,22.1,4.0,30.05,NNW,342,7.3,7.8,45,0.00,,CLR,0.00,VWS V13.01,2013-02-17 22:37:00,
2013-02-17 17:42:00,22.1,4.0,30.05,West,270,9.5,13.1,45,0.00,,CLR,0.00,VWS V13.01,2013-02-17 22:42:00,
2013-02-17 17:47:00,21.9,3.8,30.05,NNW,340,10.3,10.3,45,0.00,,CLR,0.00,VWS V13.01,2013-02-17 22:47:00,
2013-02-17 17:52:00,21.9,3.8,30.08,WSW,252,9.5,9.5,45,0.00,,CLR,0.00,VWS V13.01,2013-02-17 22:52:00,
2013-02-17 17:57:00,21.9,3.8,30.08,WSW,242,10.3,18.7,45,0.00,,CLR,0.00,VWS V13.01,2013-02-17 22:57:00,
2013-02-17 18:02:00,21.7,3.7,30.08,NW,307,10.3,14.8,45,0.00,,CLR,0.00,VWS V13.01,2013-02-17 23:02:00,
2013-02-17 18:07:00,21.7,3.7,30.08,WNW,294,10.9,12.0,45,0.00,,CLR,0.00,VWS V13.01,2013-02-17 23:07:00,
2013-02-17 18:12:00,21.6,3.5,30.08,West,278,7.3,10.1,45,0.00,,CLR,0.00,VWS V13.01,2013-02-17 23:12:00,
2013-02-17 18:17:00,21.4,3.3,30.08,WNW,297,3.4,7.3,45,0.00,,CLR,0.00,VWS V13.01,2013-02-17 23:17:00,
2013-02-17 18:22:00,21.2,3.2,30.08,WNW,290,10.1,10.1,45,0.00,,CLR,0.00,VWS V13.01,2013-02-17 23:22:00,
2013-02-17 18:27:00,21.2,3.2,30.08,West,259,7.3,7.8,45,0.00,,CLR,0.00,VWS V13.01,2013-02-17 23:27:00,
2013-02-17 18:32:00,21.2,3.2,30.08,NNW,332,4.5,5.0,45,0.00,,CLR,0.00,VWS V13.01,2013-02-17 23:32:00,
2013-02-17 18:37:00,21.2,3.2,30.11,West,271,6.7,10.9,45,0.00,,CLR,0.00,VWS V13.01,2013-02-17 23:37:00,
2013-02-17 18:42:00,21.2,3.2,30.11,West,260,9.5,11.5,45,0.00,,SCT060,0.00,VWS V13.01,2013-02-17 23:42:00,
2013-02-17 18:47:00,21.2,3.2,30.11,West,268,10.1,10.1,45,0.00,,SCT060,0.00,VWS V13.01,2013-02-17 23:47:00,
2013-02-17 18:52:00,21.2,3.2,30.11,West,275,7.8,8.9,45,0.00,,SCT060,0.00,VWS V13.01,2013-02-17 23:52:00,
2013-02-17 18:57:00,21.2,3.2,30.11,West,281,12.6,12.6,45,0.00,,SCT060,0.00,VWS V13.01,2013-02-17 23:57:00,
2013-02-17 19:02:00,21.2,3.2,30.11,WNW,282,12.6,12.6,45,0.00,,SCT060,0.00,VWS V13.01,2013-02-18 00:02:00,
2013-02-17 19:07:00,21.2,3.2,30.11,West,275,6.2,6.7,45,0.00,,SCT060,0.00,VWS V13.01,2013-02-18 00:07:00,
2013-02-17 19:12:00,21.2,3.2,30.11,WSW,256,10.1,10.3,45,0.00,,SCT060,0.00,VWS V13.01,2013-02-18 00:12:00,
2013-02-17 19:17:00,21.2,3.2,30.11,West,278,7.3,10.3,45,0.00,,SCT060,0.00,VWS V13.01,2013-02-18 00:17:00,
2013-02-17 19:22:00,21.2,3.2,30.11,WNW,284,7.8,9.5,45,0.00,,BKN060,0.00,VWS V13.01,2013-02-18 00:22:00,
2013-02-17 19:27:00,21.2,3.2,30.11,West,264,7.8,7.8,45,0.00,,BKN060,0.00,VWS V13.01,2013-02-18 00:27:00,
2013-02-17 19:32:00,21.2,3.2,30.11,West,270,5.0,8.4,45,0.00,,BKN060,0.00,VWS V13.01,2013-02-18 00:32:00,
2013-02-17 19:37:00,21.2,3.2,30.11,WNW,284,3.9,6.7,45,0.00,,BKN060,0.00,VWS V13.01,2013-02-18 00:37:00,
2013-02-17 19:42:00,21.2,3.2,30.11,West,267,7.8,8.4,45,0.00,,BKN060,0.00,VWS V13.01,2013-02-18 00:42:00,
2013-02-17 19:47:00,21.0,3.0,30.11,West,263,9.5,9.5,45,0.00,,BKN060,0.00,VWS V13.01,2013-02-18 00:47:00,
2013-02-17 19:52:00,21.2,3.2,30.11,WSW,244,10.3,12.6,45,0.00,,BKN060,0.00,VWS V13.01,2013-02-18 00:52:00,
2013-02-17 19:57:00,21.2,3.2,30.11,WNW,300,10.9,10.9,45,0.00,,BKN060,0.00,VWS V13.01,2013-02-18 00:57:00,
2013-02-17 20:02:00,21.2,3.2,30.11,West,265,5.0,10.3,45,0.00,,BKN060,0.00,VWS V13.01,2013-02-18 01:02:00,
2013-02-17 20:07:00,21.2,3.2,30.11,West,276,10.9,13.1,45,0.00,,SCT050,0.00,VWS V13.01,2013-02-18 01:07:00,
2013-02-17 20:12:00,21.2,3.2,30.11,NW,316,9.5,10.1,45,0.00,,SCT050,0.00,VWS V13.01,2013-02-18 01:12:00,
2013-02-17 20:17:00,21.2,3.2,30.11,NW,308,10.3,10.3,45,0.00,,SCT050,0.00,VWS V13.01,2013-02-18 01:17:00,
2013-02-17 20:22:00,21.2,3.2,30.14,WNW,286,6.2,6.7,45,0.00,,BKN050,0.00,VWS V13.01,2013-02-18 01:22:00,
2013-02-17 20:27:00,21.2,3.2,30.14,West,276,7.8,7.8,45,0.00,,BKN050,0.00,VWS V13.01,2013-02-18 01:27:00,
2013-02-17 20:32:00,21.0,3.0,30.14,NW,305,10.3,10.3,45,0.00,,BKN050,0.00,VWS V13.01,2013-02-18 01:32:00,
2013-02-17 20:37:00,21.2,3.2,30.14,North,357,5.0,8.4,45,0.00,,BKN050,0.00,VWS V13.01,2013-02-18 01:37:00,
2013-02-17 20:42:00,21.2,3.2,30.14,NW,312,6.7,7.8,45,0.00,,BKN050,0.00,VWS V13.01,2013-02-18 01:42:00,
2013-02-17 20:47:00,21.2,3.2,30.14,WNW,283,7.8,10.1,45,0.00,,BKN050,0.00,VWS V13.01,2013-02-18 01:47:00,
2013-02-17 20:52:00,21.2,3.2,30.14,WSW,254,6.7,7.8,45,0.00,,BKN050,0.00,VWS V13.01,2013-02-18 01:52:00,
2013-02-17 20:57:00,21.0,3.0,30.14,West,275,7.3,7.3,45,0.00,,BKN050,0.00,VWS V13.01,2013-02-18 01:57:00,
2013-02-17 21:02:00,20.8,2.9,30.14,West,276,4.5,5.0,45,0.00,,BKN050,0.00,VWS V13.01,2013-02-18 02:02:00,
2013-02-17 21:07:00,20.7,2.7,30.14,WSW,248,6.2,8.9,45,0.00,,BKN050,0.00,VWS V13.01,2013-02-18 02:07:00,
2013-02-17 21:12:00,20.7,2.7,30.14,West,259,6.7,10.3,45,0.00,,BKN050,0.00,VWS V13.01,2013-02-18 02:12:00,
2013-02-17 21:17:00,21.0,3.0,30.14,WSW,246,7.8,9.5,45,0.00,,BKN050,0.00,VWS V13.01,2013-02-18 02:17:00,
2013-02-17 21:22:00,21.0,3.0,30.14,West,265,7.8,7.8,45,0.00,,BKN050,0.00,VWS V13.01,2013-02-18 02:22:00,
2013-02-17 21:27:00,21.0,3.0,30.14,West,260,6.7,7.8,45,0.00,,BKN050,0.00,VWS V13.01,2013-02-18 02:27:00,
2013-02-17 21:32:00,21.2,3.2,30.14,WNW,290,10.1,10.9,45,0.00,,BKN050,0.00,VWS V13.01,2013-02-18 02:32:00,
2013-02-17 21:37:00,21.2,3.2,30.14,WSW,241,10.3,12.6,45,0.00,,BKN050,0.00,VWS V13.01,2013-02-18 02:37:00,
2013-02-17 21:42:00,21.2,3.2,30.14,NW,305,6.7,13.1,45,0.00,,BKN050,0.00,VWS V13.01,2013-02-18 02:42:00,
2013-02-17 21:47:00,21.2,3.2,30.14,West,259,12.6,12.6,45,0.00,,BKN050,0.00,VWS V13.01,2013-02-18 02:47:00,
2013-02-17 21:52:00,21.2,3.2,30.14,West,281,9.5,10.9,45,0.00,,BKN050,0.00,VWS V13.01,2013-02-18 02:52:00,
2013-02-17 21:57:00,21.2,3.2,30.14,WNW,288,7.8,12.6,45,0.00,,BKN050,0.00,VWS V13.01,2013-02-18 02:57:00,
2013-02-17 22:02:00,21.2,3.2,30.14,West,273,10.1,10.1,45,0.00,,BKN050,0.00,VWS V13.01,2013-02-18 03:02:00,
2013-02-17 22:07:00,21.2,3.2,30.14,WSW,250,11.5,11.5,45,0.00,,BKN050,0.00,VWS V13.01,2013-02-18 03:07:00,
2013-02-17 22:12:00,21.2,3.2,30.14,WSW,251,9.5,16.5,45,0.00,,BKN050,0.00,VWS V13.01,2013-02-18 03:12:00,
2013-02-17 22:17:00,21.2,3.2,30.14,WSW,253,9.5,9.5,45,0.00,,BKN050,0.00,VWS V13.01,2013-02-18 03:17:00,
2013-02-17 22:22:00,21.2,3.2,30.14,West,271,3.4,10.1,45,0.00,,SCT050,0.00,VWS V13.01,2013-02-18 03:22:00,
2013-02-17 22:27:00,21.2,3.2,30.14,WNW,295,3.9,6.7,45,0.00,,SCT050,0.00,VWS V13.01,2013-02-18 03:27:00,
2013-02-17 22:32:00,21.2,3.2,30.14,WNW,296,7.3,7.8,45,0.00,,SCT050,0.00,VWS V13.01,2013-02-18 03:32:00,
2013-02-17 22:37:00,21.2,3.2,30.14,NW,309,4.5,7.8,45,0.00,,SCT050,0.00,VWS V13.01,2013-02-18 03:37:00,
2013-02-17 22:42:00,21.2,3.2,30.14,North,357,5.0,6.7,45,0.00,,CLR,0.00,VWS V13.01,2013-02-18 03:42:00,
2013-02-17 22:47:00,21.2,3.2,30.14,North,10,6.2,9.5,45,0.00,,CLR,0.00,VWS V13.01,2013-02-18 03:47:00,
2013-02-17 22:52:00,21.2,3.2,30.14,NNE,13,4.5,6.2,45,0.00,,CLR,0.00,VWS V13.01,2013-02-18 03:52:00,
2013-02-17 22:57:00,20.8,2.9,30.14,NNE,25,0.0,3.9,45,0.00,,CLR,0.00,VWS V13.01,2013-02-18 03:57:00,
2013-02-17 23:02:00,20.3,2.4,30.14,NNE,22,0.0,0.0,45,0.00,,CLR,0.00,VWS V13.01,2013-02-18 04:02:00,
2013-02-17 23:07:00,19.9,2.0,30.14,NE,34,3.4,4.5,45,0.00,,CLR,0.00,VWS V13.01,2013-02-18 04:07:00,
2013-02-17 23:12:00,19.8,1.9,30.14,NNE,20,2.8,3.4,45,0.00,,CLR,0.00,VWS V13.01,2013-02-18 04:12:00,
2013-02-17 23:17:00,19.8,1.9,30.14,NNE,16,0.0,3.9,45,0.00,,CLR,0.00,VWS V13.01,2013-02-18 04:17:00,
2013-02-17 23:22:00,19.8,1.9,30.14,NNE,27,3.4,4.5,45,0.00,,CLR,0.00,VWS V13.01,2013-02-18 04:22:00,
2013-02-17 23:27:00,19.6,1.7,30.14,North,357,6.2,6.2,45,0.00,,CLR,0.00,VWS V13.01,2013-02-18 04:27:00,
2013-02-17 23:32:00,19.4,2.0,30.14,North,357,3.9,3.9,46,0.00,,CLR,0.00,VWS V13.01,2013-02-18 04:32:00,
2013-02-17 23:37:00,19.2,1.8,30.14,West,265,3.9,4.5,46,0.00,,CLR,0.00,VWS V13.01,2013-02-18 04:37:00,
2013-02-17 23:42:00,19.0,1.7,30.14,North,0,3.4,5.0,46,0.00,,CLR,0.00,VWS V13.01,2013-02-18 04:42:00,
2013-02-17 23:47:00,19.0,1.7,30.14,North,0,0.0,3.4,46,0.00,,CLR,0.00,VWS V13.01,2013-02-18 04:47:00,
2013-02-17 23:52:00,18.9,1.5,30.14,NW,326,0.0,3.9,46,0.00,,CLR,0.00,VWS V13.01,2013-02-18 04:52:00,
2013-02-17 23:57:00,18.5,1.2,30.14,WNW,298,3.4,3.4,46,0.00,,CLR,0.00,VWS V13.01,2013-02-18 04:57:00,